sensor_id;sensor_type;location;lat;lon;timestamp;temperature;humidity
22813;DHT22;11573;51.334;3.244;2023-10-08T00:01:10;17.60;99.90
22813;DHT22;11573;51.334;3.244;2023-10-08T00:03:42;17.60;99.90
22813;DHT22;11573;51.334;3.244;2023-10-08T00:06:20;17.60;99.90
22813;DHT22;11573;51.334;3.244;2023-10-08T00:08:49;17.60;99.90
22813;DHT22;11573;51.334;3.244;2023-10-08T00:11:17;17.60;99.90
22813;DHT22;11573;51.334;3.244;2023-10-08T00:13:44;17.60;99.90
22813;DHT22;11573;51.334;3.244;2023-10-08T00:16:13;17.60;99.90
22813;DHT22;11573;51.334;3.244;2023-10-08T00:18:44;17.60;99.90
22813;DHT22;11573;51.334;3.244;2023-10-08T00:21:21;17.60;99.90
22813;DHT22;11573;51.334;3.244;2023-10-08T00:23:55;17.60;99.90
22813;DHT22;11573;51.334;3.244;2023-10-08T00:26:29;17.50;99.90
22813;DHT22;11573;51.334;3.244;2023-10-08T00:29:03;17.60;99.90
22813;DHT22;11573;51.334;3.244;2023-10-08T00:31:34;17.50;99.90
22813;DHT22;11573;51.334;3.244;2023-10-08T00:34:08;17.50;99.90
22813;DHT22;11573;51.334;3.244;2023-10-08T00:36:43;17.50;99.90
22813;DHT22;11573;51.334;3.244;2023-10-08T00:39:11;17.50;99.90
22813;DHT22;11573;51.334;3.244;2023-10-08T00:41:44;17.50;99.90
22813;DHT22;11573;51.334;3.244;2023-10-08T00:44:13;17.50;99.90
22813;DHT22;11573;51.334;3.244;2023-10-08T00:46:43;17.50;99.90
22813;DHT22;11573;51.334;3.244;2023-10-08T00:49:22;17.50;99.90
22813;DHT22;11573;51.334;3.244;2023-10-08T00:51:56;17.50;99.90
22813;DHT22;11573;51.334;3.244;2023-10-08T00:54:46;17.50;99.90
22813;DHT22;11573;51.334;3.244;2023-10-08T00:57:32;17.50;99.90
22813;DHT22;11573;51.334;3.244;2023-10-08T01:00:04;17.40;99.90
22813;DHT22;11573;51.334;3.244;2023-10-08T01:02:33;17.30;99.90
22813;DHT22;11573;51.334;3.244;2023-10-08T01:05:14;17.30;99.90
22813;DHT22;11573;51.334;3.244;2023-10-08T01:08:05;17.30;99.90
22813;DHT22;11573;51.334;3.244;2023-10-08T01:10:33;17.30;99.90
22813;DHT22;11573;51.334;3.244;2023-10-08T01:13:02;17.30;99.90
22813;DHT22;11573;51.334;3.244;2023-10-08T01:15:33;17.30;99.90
22813;DHT22;11573;51.334;3.244;2023-10-08T01:18:03;17.30;99.90
22813;DHT22;11573;51.334;3.244;2023-10-08T01:20:33;17.30;99.90
22813;DHT22;11573;51.334;3.244;2023-10-08T01:23:19;17.30;99.90
22813;DHT22;11573;51.334;3.244;2023-10-08T01:25:53;17.30;99.90
22813;DHT22;11573;51.334;3.244;2023-10-08T01:28:40;17.30;99.90
22813;DHT22;11573;51.334;3.244;2023-10-08T01:31:09;17.30;99.90
22813;DHT22;11573;51.334;3.244;2023-10-08T01:33:39;17.30;99.90
22813;DHT22;11573;51.334;3.244;2023-10-08T01:36:16;17.30;99.90
22813;DHT22;11573;51.334;3.244;2023-10-08T01:38:43;17.30;99.90
22813;DHT22;11573;51.334;3.244;2023-10-08T01:41:15;17.30;99.90
22813;DHT22;11573;51.334;3.244;2023-10-08T01:43:47;17.30;99.90
22813;DHT22;11573;51.334;3.244;2023-10-08T01:46:14;17.30;99.90
22813;DHT22;11573;51.334;3.244;2023-10-08T01:48:43;17.20;99.90
22813;DHT22;11573;51.334;3.244;2023-10-08T01:51:12;17.30;99.90
22813;DHT22;11573;51.334;3.244;2023-10-08T01:53:54;17.30;99.90
22813;DHT22;11573;51.334;3.244;2023-10-08T01:56:25;17.30;99.90
22813;DHT22;11573;51.334;3.244;2023-10-08T01:58:52;17.30;99.90
22813;DHT22;11573;51.334;3.244;2023-10-08T02:01:20;17.30;99.90
22813;DHT22;11573;51.334;3.244;2023-10-08T02:03:47;17.30;99.90
22813;DHT22;11573;51.334;3.244;2023-10-08T02:06:15;17.30;99.90
22813;DHT22;11573;51.334;3.244;2023-10-08T02:08:42;17.20;99.90
22813;DHT22;11573;51.334;3.244;2023-10-08T02:11:09;17.20;99.90
22813;DHT22;11573;51.334;3.244;2023-10-08T02:13:37;17.20;99.90
22813;DHT22;11573;51.334;3.244;2023-10-08T02:16:04;17.20;99.90
22813;DHT22;11573;51.334;3.244;2023-10-08T02:18:31;17.20;99.90
22813;DHT22;11573;51.334;3.244;2023-10-08T02:21:00;17.20;99.90
22813;DHT22;11573;51.334;3.244;2023-10-08T02:23:27;17.20;99.90
22813;DHT22;11573;51.334;3.244;2023-10-08T02:25:55;17.10;99.90
22813;DHT22;11573;51.334;3.244;2023-10-08T02:28:22;17.10;99.90
22813;DHT22;11573;51.334;3.244;2023-10-08T02:30:51;17.10;99.90
22813;DHT22;11573;51.334;3.244;2023-10-08T02:33:18;17.10;99.90
22813;DHT22;11573;51.334;3.244;2023-10-08T02:35:47;17.10;99.90
22813;DHT22;11573;51.334;3.244;2023-10-08T02:38:17;17.00;99.90
22813;DHT22;11573;51.334;3.244;2023-10-08T02:40:45;17.00;99.90
22813;DHT22;11573;51.334;3.244;2023-10-08T02:43:16;17.00;99.90
22813;DHT22;11573;51.334;3.244;2023-10-08T02:45:44;16.90;99.90
22813;DHT22;11573;51.334;3.244;2023-10-08T02:48:16;16.90;99.90
22813;DHT22;11573;51.334;3.244;2023-10-08T02:50:45;16.90;99.90
22813;DHT22;11573;51.334;3.244;2023-10-08T02:53:15;16.90;99.90
22813;DHT22;11573;51.334;3.244;2023-10-08T02:55:50;16.90;99.90
22813;DHT22;11573;51.334;3.244;2023-10-08T02:58:17;16.80;99.90
22813;DHT22;11573;51.334;3.244;2023-10-08T03:00:48;16.80;99.90
22813;DHT22;11573;51.334;3.244;2023-10-08T03:03:17;16.60;99.90
22813;DHT22;11573;51.334;3.244;2023-10-08T03:05:47;16.50;99.90
22813;DHT22;11573;51.334;3.244;2023-10-08T03:08:16;16.40;99.90
22813;DHT22;11573;51.334;3.244;2023-10-08T03:10:51;16.20;99.90
22813;DHT22;11573;51.334;3.244;2023-10-08T03:13:29;16.10;99.90
22813;DHT22;11573;51.334;3.244;2023-10-08T03:15:56;16.00;99.90
22813;DHT22;11573;51.334;3.244;2023-10-08T03:18:36;15.80;99.90
22813;DHT22;11573;51.334;3.244;2023-10-08T03:21:05;15.80;99.90
22813;DHT22;11573;51.334;3.244;2023-10-08T03:23:33;15.70;99.90
22813;DHT22;11573;51.334;3.244;2023-10-08T03:26:04;15.60;99.90
22813;DHT22;11573;51.334;3.244;2023-10-08T03:29:01;15.50;99.90
22813;DHT22;11573;51.334;3.244;2023-10-08T03:31:32;15.30;99.90
22813;DHT22;11573;51.334;3.244;2023-10-08T03:34:18;15.20;99.90
22813;DHT22;11573;51.334;3.244;2023-10-08T03:36:48;15.10;99.90
22813;DHT22;11573;51.334;3.244;2023-10-08T03:39:18;15.00;99.90
22813;DHT22;11573;51.334;3.244;2023-10-08T03:41:49;15.00;99.90
22813;DHT22;11573;51.334;3.244;2023-10-08T03:44:26;14.90;99.90
22813;DHT22;11573;51.334;3.244;2023-10-08T03:46:56;14.90;99.90
22813;DHT22;11573;51.334;3.244;2023-10-08T03:49:24;14.90;99.90
22813;DHT22;11573;51.334;3.244;2023-10-08T03:51:52;14.90;99.90
22813;DHT22;11573;51.334;3.244;2023-10-08T03:54:20;14.90;99.90
22813;DHT22;11573;51.334;3.244;2023-10-08T03:56:57;15.00;99.90
22813;DHT22;11573;51.334;3.244;2023-10-08T03:59:24;15.00;99.90
22813;DHT22;11573;51.334;3.244;2023-10-08T04:01:58;14.90;99.90
22813;DHT22;11573;51.334;3.244;2023-10-08T04:04:42;15.00;99.90
22813;DHT22;11573;51.334;3.244;2023-10-08T04:07:19;14.90;99.90
22813;DHT22;11573;51.334;3.244;2023-10-08T04:10:06;14.90;99.90
22813;DHT22;11573;51.334;3.244;2023-10-08T04:12:38;14.80;99.90
22813;DHT22;11573;51.334;3.244;2023-10-08T04:15:11;14.80;99.90
22813;DHT22;11573;51.334;3.244;2023-10-08T04:17:44;14.80;99.90
22813;DHT22;11573;51.334;3.244;2023-10-08T04:20:15;14.80;99.90
22813;DHT22;11573;51.334;3.244;2023-10-08T04:23:10;14.90;99.90
22813;DHT22;11573;51.334;3.244;2023-10-08T04:25:48;15.00;99.90
22813;DHT22;11573;51.334;3.244;2023-10-08T04:28:22;15.00;99.90
22813;DHT22;11573;51.334;3.244;2023-10-08T04:30:49;15.10;99.90
22813;DHT22;11573;51.334;3.244;2023-10-08T04:33:18;15.10;99.90
22813;DHT22;11573;51.334;3.244;2023-10-08T04:35:46;15.20;99.90
22813;DHT22;11573;51.334;3.244;2023-10-08T04:38:24;15.20;99.90
22813;DHT22;11573;51.334;3.244;2023-10-08T04:40:53;15.20;99.90
22813;DHT22;11573;51.334;3.244;2023-10-08T04:43:21;15.30;99.90
22813;DHT22;11573;51.334;3.244;2023-10-08T04:45:53;15.30;99.90
22813;DHT22;11573;51.334;3.244;2023-10-08T04:48:20;15.30;99.90
22813;DHT22;11573;51.334;3.244;2023-10-08T04:50:48;15.30;99.90
22813;DHT22;11573;51.334;3.244;2023-10-08T04:56:04;15.30;99.90
22813;DHT22;11573;51.334;3.244;2023-10-08T04:58:40;15.20;99.90
22813;DHT22;11573;51.334;3.244;2023-10-08T05:01:08;15.10;99.90
22813;DHT22;11573;51.334;3.244;2023-10-08T05:03:46;15.10;99.90
22813;DHT22;11573;51.334;3.244;2023-10-08T05:06:28;15.00;99.90
22813;DHT22;11573;51.334;3.244;2023-10-08T05:09:11;14.90;99.90
22813;DHT22;11573;51.334;3.244;2023-10-08T05:11:39;14.80;99.90
22813;DHT22;11573;51.334;3.244;2023-10-08T05:14:24;14.80;99.90
22813;DHT22;11573;51.334;3.244;2023-10-08T05:17:03;14.80;99.90
22813;DHT22;11573;51.334;3.244;2023-10-08T05:19:37;14.80;99.90
22813;DHT22;11573;51.334;3.244;2023-10-08T05:22:08;14.80;99.90
22813;DHT22;11573;51.334;3.244;2023-10-08T05:24:46;14.80;99.90
22813;DHT22;11573;51.334;3.244;2023-10-08T05:27:40;14.70;99.90
22813;DHT22;11573;51.334;3.244;2023-10-08T05:30:21;14.70;99.90
22813;DHT22;11573;51.334;3.244;2023-10-08T05:33:08;14.60;99.90
22813;DHT22;11573;51.334;3.244;2023-10-08T05:35:52;14.60;99.90
22813;DHT22;11573;51.334;3.244;2023-10-08T05:38:23;14.60;99.90
22813;DHT22;11573;51.334;3.244;2023-10-08T05:40:57;14.60;99.90
22813;DHT22;11573;51.334;3.244;2023-10-08T05:48:58;14.50;99.90
22813;DHT22;11573;51.334;3.244;2023-10-08T05:51:29;14.40;99.90
22813;DHT22;11573;51.334;3.244;2023-10-08T05:54:24;14.40;99.90
22813;DHT22;11573;51.334;3.244;2023-10-08T05:57:08;14.40;99.90
22813;DHT22;11573;51.334;3.244;2023-10-08T05:59:43;14.50;99.90
22813;DHT22;11573;51.334;3.244;2023-10-08T06:02:30;14.40;99.90
22813;DHT22;11573;51.334;3.244;2023-10-08T06:05:06;14.40;99.90
22813;DHT22;11573;51.334;3.244;2023-10-08T06:07:42;14.40;99.90
22813;DHT22;11573;51.334;3.244;2023-10-08T06:13:14;14.40;99.90
22813;DHT22;11573;51.334;3.244;2023-10-08T06:15:48;14.40;99.90
22813;DHT22;11573;51.334;3.244;2023-10-08T06:18:19;14.40;99.90
22813;DHT22;11573;51.334;3.244;2023-10-08T06:20:47;14.50;99.90
22813;DHT22;11573;51.334;3.244;2023-10-08T06:23:17;14.60;99.90
22813;DHT22;11573;51.334;3.244;2023-10-08T06:25:47;14.70;99.90
22813;DHT22;11573;51.334;3.244;2023-10-08T06:28:21;14.70;99.90
22813;DHT22;11573;51.334;3.244;2023-10-08T06:30:49;14.70;99.90
22813;DHT22;11573;51.334;3.244;2023-10-08T06:33:16;14.80;99.90
22813;DHT22;11573;51.334;3.244;2023-10-08T06:35:43;14.80;99.90
22813;DHT22;11573;51.334;3.244;2023-10-08T06:38:29;14.80;99.90
22813;DHT22;11573;51.334;3.244;2023-10-08T06:41:00;14.90;99.90
22813;DHT22;11573;51.334;3.244;2023-10-08T06:43:34;14.90;99.90
22813;DHT22;11573;51.334;3.244;2023-10-08T06:46:04;14.90;99.90
22813;DHT22;11573;51.334;3.244;2023-10-08T06:48:34;14.90;99.90
22813;DHT22;11573;51.334;3.244;2023-10-08T06:51:02;15.00;99.90
22813;DHT22;11573;51.334;3.244;2023-10-08T06:53:43;15.00;99.90
22813;DHT22;11573;51.334;3.244;2023-10-08T06:56:15;15.20;99.90
22813;DHT22;11573;51.334;3.244;2023-10-08T06:58:43;15.20;99.90
22813;DHT22;11573;51.334;3.244;2023-10-08T07:01:20;15.30;99.90
22813;DHT22;11573;51.334;3.244;2023-10-08T07:03:52;15.40;99.90
22813;DHT22;11573;51.334;3.244;2023-10-08T07:06:23;15.50;99.90
22813;DHT22;11573;51.334;3.244;2023-10-08T07:08:59;15.60;99.90
22813;DHT22;11573;51.334;3.244;2023-10-08T07:11:26;15.60;99.90
22813;DHT22;11573;51.334;3.244;2023-10-08T07:13:53;15.60;99.90
22813;DHT22;11573;51.334;3.244;2023-10-08T07:16:21;15.70;99.90
22813;DHT22;11573;51.334;3.244;2023-10-08T07:18:49;15.70;99.90
22813;DHT22;11573;51.334;3.244;2023-10-08T07:21:19;15.70;99.90
22813;DHT22;11573;51.334;3.244;2023-10-08T07:23:50;15.90;99.90
22813;DHT22;11573;51.334;3.244;2023-10-08T07:26:25;16.00;99.90
22813;DHT22;11573;51.334;3.244;2023-10-08T07:28:53;16.00;99.90
22813;DHT22;11573;51.334;3.244;2023-10-08T07:31:22;16.00;99.90
22813;DHT22;11573;51.334;3.244;2023-10-08T07:33:51;16.10;99.90
22813;DHT22;11573;51.334;3.244;2023-10-08T07:36:26;16.10;99.90
22813;DHT22;11573;51.334;3.244;2023-10-08T07:38:57;16.10;99.90
22813;DHT22;11573;51.334;3.244;2023-10-08T07:41:24;16.30;99.90
22813;DHT22;11573;51.334;3.244;2023-10-08T07:43:51;16.30;99.90
22813;DHT22;11573;51.334;3.244;2023-10-08T07:46:26;16.50;99.90
22813;DHT22;11573;51.334;3.244;2023-10-08T07:48:55;16.80;99.90
22813;DHT22;11573;51.334;3.244;2023-10-08T07:51:25;16.80;99.90
22813;DHT22;11573;51.334;3.244;2023-10-08T07:53:52;16.90;99.90
22813;DHT22;11573;51.334;3.244;2023-10-08T07:56:23;17.00;99.90
22813;DHT22;11573;51.334;3.244;2023-10-08T07:58:51;17.20;99.90
22813;DHT22;11573;51.334;3.244;2023-10-08T08:01:19;17.30;99.90
22813;DHT22;11573;51.334;3.244;2023-10-08T08:03:47;17.30;99.90
22813;DHT22;11573;51.334;3.244;2023-10-08T08:06:16;17.30;99.90
22813;DHT22;11573;51.334;3.244;2023-10-08T08:08:43;17.30;99.90
22813;DHT22;11573;51.334;3.244;2023-10-08T08:11:11;17.40;99.90
22813;DHT22;11573;51.334;3.244;2023-10-08T08:13:46;17.30;99.90
22813;DHT22;11573;51.334;3.244;2023-10-08T08:16:15;17.30;99.90
22813;DHT22;11573;51.334;3.244;2023-10-08T08:18:50;17.30;99.90
22813;DHT22;11573;51.334;3.244;2023-10-08T08:21:26;17.40;99.90
22813;DHT22;11573;51.334;3.244;2023-10-08T08:23:53;17.30;99.90
22813;DHT22;11573;51.334;3.244;2023-10-08T08:26:31;17.40;99.90
22813;DHT22;11573;51.334;3.244;2023-10-08T08:29:06;17.40;99.90
22813;DHT22;11573;51.334;3.244;2023-10-08T08:31:35;17.40;99.90
22813;DHT22;11573;51.334;3.244;2023-10-08T08:34:03;17.40;99.90
22813;DHT22;11573;51.334;3.244;2023-10-08T08:36:35;17.40;99.90
22813;DHT22;11573;51.334;3.244;2023-10-08T08:39:06;17.50;99.90
22813;DHT22;11573;51.334;3.244;2023-10-08T08:41:38;17.70;99.90
22813;DHT22;11573;51.334;3.244;2023-10-08T08:44:05;17.80;99.90
22813;DHT22;11573;51.334;3.244;2023-10-08T08:46:36;17.90;99.90
22813;DHT22;11573;51.334;3.244;2023-10-08T08:49:06;18.10;99.90
22813;DHT22;11573;51.334;3.244;2023-10-08T08:51:35;18.30;99.90
22813;DHT22;11573;51.334;3.244;2023-10-08T08:54:03;18.30;99.90
22813;DHT22;11573;51.334;3.244;2023-10-08T08:56:34;18.50;99.90
22813;DHT22;11573;51.334;3.244;2023-10-08T08:59:04;18.60;99.90
22813;DHT22;11573;51.334;3.244;2023-10-08T09:01:32;18.80;99.90
22813;DHT22;11573;51.334;3.244;2023-10-08T09:04:01;18.90;99.90
22813;DHT22;11573;51.334;3.244;2023-10-08T09:06:28;19.10;99.90
22813;DHT22;11573;51.334;3.244;2023-10-08T09:08:55;19.20;99.90
22813;DHT22;11573;51.334;3.244;2023-10-08T09:11:40;19.30;99.90
22813;DHT22;11573;51.334;3.244;2023-10-08T09:14:11;19.30;99.90
22813;DHT22;11573;51.334;3.244;2023-10-08T09:16:39;19.50;99.90
22813;DHT22;11573;51.334;3.244;2023-10-08T09:19:06;19.60;99.90
22813;DHT22;11573;51.334;3.244;2023-10-08T09:21:42;19.80;99.90
22813;DHT22;11573;51.334;3.244;2023-10-08T09:24:09;19.80;99.90
22813;DHT22;11573;51.334;3.244;2023-10-08T09:26:38;20.00;99.90
22813;DHT22;11573;51.334;3.244;2023-10-08T09:29:07;20.10;99.90
22813;DHT22;11573;51.334;3.244;2023-10-08T09:31:35;20.10;99.90
22813;DHT22;11573;51.334;3.244;2023-10-08T09:34:03;20.00;99.90
22813;DHT22;11573;51.334;3.244;2023-10-08T09:36:31;19.90;99.90
22813;DHT22;11573;51.334;3.244;2023-10-08T09:39:03;20.10;99.90
22813;DHT22;11573;51.334;3.244;2023-10-08T09:41:33;20.10;99.90
22813;DHT22;11573;51.334;3.244;2023-10-08T09:44:02;20.10;99.90
22813;DHT22;11573;51.334;3.244;2023-10-08T09:46:32;20.00;99.90
22813;DHT22;11573;51.334;3.244;2023-10-08T09:49:02;20.20;99.90
22813;DHT22;11573;51.334;3.244;2023-10-08T09:51:36;20.30;99.90
22813;DHT22;11573;51.334;3.244;2023-10-08T09:56:41;20.30;99.90
22813;DHT22;11573;51.334;3.244;2023-10-08T09:59:10;20.40;99.90
22813;DHT22;11573;51.334;3.244;2023-10-08T10:01:39;20.40;99.90
22813;DHT22;11573;51.334;3.244;2023-10-08T10:04:11;20.50;99.90
22813;DHT22;11573;51.334;3.244;2023-10-08T10:06:42;20.70;99.90
22813;DHT22;11573;51.334;3.244;2023-10-08T10:09:20;20.70;99.90
22813;DHT22;11573;51.334;3.244;2023-10-08T10:11:49;20.80;99.90
22813;DHT22;11573;51.334;3.244;2023-10-08T10:14:17;20.80;99.90
22813;DHT22;11573;51.334;3.244;2023-10-08T10:17:30;20.60;99.90
22813;DHT22;11573;51.334;3.244;2023-10-08T10:20:10;20.90;99.90
22813;DHT22;11573;51.334;3.244;2023-10-08T10:22:42;20.90;99.90
22813;DHT22;11573;51.334;3.244;2023-10-08T10:25:10;21.00;99.90
22813;DHT22;11573;51.334;3.244;2023-10-08T10:30:18;21.00;99.90
22813;DHT22;11573;51.334;3.244;2023-10-08T10:32:53;21.10;99.90
22813;DHT22;11573;51.334;3.244;2023-10-08T10:35:20;21.20;99.90
22813;DHT22;11573;51.334;3.244;2023-10-08T10:37:47;21.30;99.90
22813;DHT22;11573;51.334;3.244;2023-10-08T10:40:23;21.30;99.90
22813;DHT22;11573;51.334;3.244;2023-10-08T10:42:57;21.40;99.90
22813;DHT22;11573;51.334;3.244;2023-10-08T10:45:25;21.40;99.90
22813;DHT22;11573;51.334;3.244;2023-10-08T10:48:09;21.40;99.90
22813;DHT22;11573;51.334;3.244;2023-10-08T10:50:47;21.60;99.90
22813;DHT22;11573;51.334;3.244;2023-10-08T10:56:15;21.70;99.90
22813;DHT22;11573;51.334;3.244;2023-10-08T10:58:47;21.80;99.90
22813;DHT22;11573;51.334;3.244;2023-10-08T11:01:26;21.80;99.90
22813;DHT22;11573;51.334;3.244;2023-10-08T11:03:57;21.90;99.90
22813;DHT22;11573;51.334;3.244;2023-10-08T11:06:27;21.90;99.90
22813;DHT22;11573;51.334;3.244;2023-10-08T11:08:55;22.00;99.90
22813;DHT22;11573;51.334;3.244;2023-10-08T11:11:26;22.00;99.90
22813;DHT22;11573;51.334;3.244;2023-10-08T11:13:58;21.90;99.90
22813;DHT22;11573;51.334;3.244;2023-10-08T11:16:27;22.00;99.90
22813;DHT22;11573;51.334;3.244;2023-10-08T11:18:58;22.20;99.90
22813;DHT22;11573;51.334;3.244;2023-10-08T11:21:28;22.30;99.90
22813;DHT22;11573;51.334;3.244;2023-10-08T11:24:00;22.20;99.90
22813;DHT22;11573;51.334;3.244;2023-10-08T11:26:36;22.10;99.90
22813;DHT22;11573;51.334;3.244;2023-10-08T11:29:07;22.20;99.90
22813;DHT22;11573;51.334;3.244;2023-10-08T11:31:41;22.40;99.90
22813;DHT22;11573;51.334;3.244;2023-10-08T11:34:11;22.60;99.90
22813;DHT22;11573;51.334;3.244;2023-10-08T11:36:41;22.40;99.90
22813;DHT22;11573;51.334;3.244;2023-10-08T11:39:20;22.30;99.90
22813;DHT22;11573;51.334;3.244;2023-10-08T11:44:23;22.40;99.90
22813;DHT22;11573;51.334;3.244;2023-10-08T11:46:57;22.50;99.90
22813;DHT22;11573;51.334;3.244;2023-10-08T11:49:31;22.60;99.90
22813;DHT22;11573;51.334;3.244;2023-10-08T11:52:03;22.90;99.90
22813;DHT22;11573;51.334;3.244;2023-10-08T11:54:30;23.20;99.90
22813;DHT22;11573;51.334;3.244;2023-10-08T11:57:00;22.90;99.90
22813;DHT22;11573;51.334;3.244;2023-10-08T11:59:29;22.80;99.90
22813;DHT22;11573;51.334;3.244;2023-10-08T12:01:59;22.90;99.90
22813;DHT22;11573;51.334;3.244;2023-10-08T12:04:26;23.00;99.90
22813;DHT22;11573;51.334;3.244;2023-10-08T12:06:57;22.90;99.90
22813;DHT22;11573;51.334;3.244;2023-10-08T12:09:30;23.20;99.90
22813;DHT22;11573;51.334;3.244;2023-10-08T12:11:57;23.30;99.90
22813;DHT22;11573;51.334;3.244;2023-10-08T12:14:24;23.40;99.90
22813;DHT22;11573;51.334;3.244;2023-10-08T12:16:57;23.20;99.90
22813;DHT22;11573;51.334;3.244;2023-10-08T12:19:27;23.20;99.90
22813;DHT22;11573;51.334;3.244;2023-10-08T12:22:00;23.30;99.90
22813;DHT22;11573;51.334;3.244;2023-10-08T12:24:30;23.30;99.90
22813;DHT22;11573;51.334;3.244;2023-10-08T12:26:57;23.30;99.90
22813;DHT22;11573;51.334;3.244;2023-10-08T12:29:25;23.20;99.90
22813;DHT22;11573;51.334;3.244;2023-10-08T12:31:53;23.10;99.90
22813;DHT22;11573;51.334;3.244;2023-10-08T12:34:20;23.20;99.90
22813;DHT22;11573;51.334;3.244;2023-10-08T12:36:49;23.00;99.90
22813;DHT22;11573;51.334;3.244;2023-10-08T12:39:17;22.90;99.90
22813;DHT22;11573;51.334;3.244;2023-10-08T12:41:52;22.80;99.90
22813;DHT22;11573;51.334;3.244;2023-10-08T12:44:21;22.80;99.90
22813;DHT22;11573;51.334;3.244;2023-10-08T12:46:50;22.80;99.90
22813;DHT22;11573;51.334;3.244;2023-10-08T12:49:18;22.60;99.90
22813;DHT22;11573;51.334;3.244;2023-10-08T12:51:48;22.50;99.90
22813;DHT22;11573;51.334;3.244;2023-10-08T12:54:15;22.50;99.90
22813;DHT22;11573;51.334;3.244;2023-10-08T12:56:49;22.50;99.90
22813;DHT22;11573;51.334;3.244;2023-10-08T12:59:16;22.60;99.90
22813;DHT22;11573;51.334;3.244;2023-10-08T13:01:51;22.50;99.90
22813;DHT22;11573;51.334;3.244;2023-10-08T13:04:21;22.30;99.90
22813;DHT22;11573;51.334;3.244;2023-10-08T13:06:55;22.30;99.90
22813;DHT22;11573;51.334;3.244;2023-10-08T13:09:29;22.20;99.90
22813;DHT22;11573;51.334;3.244;2023-10-08T13:11:59;22.30;99.90
22813;DHT22;11573;51.334;3.244;2023-10-08T13:14:26;22.10;99.90
22813;DHT22;11573;51.334;3.244;2023-10-08T13:16:53;22.10;99.90
22813;DHT22;11573;51.334;3.244;2023-10-08T13:19:21;22.00;99.90
22813;DHT22;11573;51.334;3.244;2023-10-08T13:21:50;22.10;99.90
22813;DHT22;11573;51.334;3.244;2023-10-08T13:24:20;22.20;99.90
22813;DHT22;11573;51.334;3.244;2023-10-08T13:26:51;22.10;99.90
22813;DHT22;11573;51.334;3.244;2023-10-08T13:29:18;22.10;99.90
22813;DHT22;11573;51.334;3.244;2023-10-08T13:31:46;22.10;99.90
22813;DHT22;11573;51.334;3.244;2023-10-08T13:34:13;22.20;99.90
22813;DHT22;11573;51.334;3.244;2023-10-08T13:36:43;22.10;99.90
22813;DHT22;11573;51.334;3.244;2023-10-08T13:39:14;22.00;99.90
22813;DHT22;11573;51.334;3.244;2023-10-08T13:41:46;22.10;99.90
22813;DHT22;11573;51.334;3.244;2023-10-08T13:44:16;22.20;99.90
22813;DHT22;11573;51.334;3.244;2023-10-08T13:46:45;22.10;99.90
22813;DHT22;11573;51.334;3.244;2023-10-08T13:49:18;22.30;99.90
22813;DHT22;11573;51.334;3.244;2023-10-08T13:51:46;22.30;99.90
22813;DHT22;11573;51.334;3.244;2023-10-08T13:54:16;22.30;99.90
22813;DHT22;11573;51.334;3.244;2023-10-08T13:56:44;22.20;99.90
22813;DHT22;11573;51.334;3.244;2023-10-08T13:59:16;22.30;99.90
22813;DHT22;11573;51.334;3.244;2023-10-08T14:01:44;21.90;99.90
22813;DHT22;11573;51.334;3.244;2023-10-08T14:04:19;21.70;99.90
22813;DHT22;11573;51.334;3.244;2023-10-08T14:06:57;21.70;99.90
22813;DHT22;11573;51.334;3.244;2023-10-08T14:09:25;21.80;99.90
22813;DHT22;11573;51.334;3.244;2023-10-08T14:11:59;21.70;99.90
22813;DHT22;11573;51.334;3.244;2023-10-08T14:14:28;22.00;99.90
22813;DHT22;11573;51.334;3.244;2023-10-08T14:17:01;21.90;99.90
22813;DHT22;11573;51.334;3.244;2023-10-08T14:19:37;21.90;99.90
22813;DHT22;11573;51.334;3.244;2023-10-08T14:22:13;22.00;99.90
22813;DHT22;11573;51.334;3.244;2023-10-08T14:24:42;22.20;99.90
22813;DHT22;11573;51.334;3.244;2023-10-08T14:27:12;22.00;99.90
22813;DHT22;11573;51.334;3.244;2023-10-08T14:29:43;22.10;99.90
22813;DHT22;11573;51.334;3.244;2023-10-08T14:32:19;22.00;99.90
22813;DHT22;11573;51.334;3.244;2023-10-08T14:34:47;22.00;99.90
22813;DHT22;11573;51.334;3.244;2023-10-08T14:37:14;21.80;99.90
22813;DHT22;11573;51.334;3.244;2023-10-08T14:40:00;21.70;99.90
22813;DHT22;11573;51.334;3.244;2023-10-08T14:42:47;21.60;99.90
22813;DHT22;11573;51.334;3.244;2023-10-08T14:45:30;21.70;99.90
22813;DHT22;11573;51.334;3.244;2023-10-08T14:47:59;21.80;99.90
22813;DHT22;11573;51.334;3.244;2023-10-08T14:50:27;22.00;99.90
22813;DHT22;11573;51.334;3.244;2023-10-08T14:52:54;22.00;99.90
22813;DHT22;11573;51.334;3.244;2023-10-08T14:55:22;21.90;99.90
22813;DHT22;11573;51.334;3.244;2023-10-08T14:57:50;21.80;99.90
22813;DHT22;11573;51.334;3.244;2023-10-08T15:00:20;21.80;99.90
22813;DHT22;11573;51.334;3.244;2023-10-08T15:02:54;21.90;99.90
22813;DHT22;11573;51.334;3.244;2023-10-08T15:05:22;21.90;99.90
22813;DHT22;11573;51.334;3.244;2023-10-08T15:07:50;21.90;99.90
22813;DHT22;11573;51.334;3.244;2023-10-08T15:10:20;21.90;99.90
22813;DHT22;11573;51.334;3.244;2023-10-08T15:12:50;22.10;99.90
22813;DHT22;11573;51.334;3.244;2023-10-08T15:15:19;22.10;99.90
22813;DHT22;11573;51.334;3.244;2023-10-08T15:17:47;22.00;99.90
22813;DHT22;11573;51.334;3.244;2023-10-08T15:20:17;22.00;99.90
22813;DHT22;11573;51.334;3.244;2023-10-08T15:22:48;21.90;99.90
22813;DHT22;11573;51.334;3.244;2023-10-08T15:25:17;21.80;99.90
22813;DHT22;11573;51.334;3.244;2023-10-08T15:27:46;21.80;99.90
22813;DHT22;11573;51.334;3.244;2023-10-08T15:30:16;21.70;99.90
22813;DHT22;11573;51.334;3.244;2023-10-08T15:32:45;21.70;99.90
22813;DHT22;11573;51.334;3.244;2023-10-08T15:35:15;21.40;99.90
22813;DHT22;11573;51.334;3.244;2023-10-08T15:37:46;21.30;99.90
22813;DHT22;11573;51.334;3.244;2023-10-08T15:40:14;21.20;99.90
22813;DHT22;11573;51.334;3.244;2023-10-08T15:42:53;21.20;99.90
22813;DHT22;11573;51.334;3.244;2023-10-08T15:45:22;21.10;99.90
22813;DHT22;11573;51.334;3.244;2023-10-08T15:47:50;20.90;99.90
22813;DHT22;11573;51.334;3.244;2023-10-08T15:50:21;20.90;99.90
22813;DHT22;11573;51.334;3.244;2023-10-08T15:52:51;20.80;99.90
22813;DHT22;11573;51.334;3.244;2023-10-08T15:55:20;20.70;99.90
22813;DHT22;11573;51.334;3.244;2023-10-08T15:57:50;20.60;99.90
22813;DHT22;11573;51.334;3.244;2023-10-08T16:00:17;20.40;99.90
22813;DHT22;11573;51.334;3.244;2023-10-08T16:02:45;20.30;99.90
22813;DHT22;11573;51.334;3.244;2023-10-08T16:05:14;20.20;99.90
22813;DHT22;11573;51.334;3.244;2023-10-08T16:07:42;20.20;99.90
22813;DHT22;11573;51.334;3.244;2023-10-08T16:10:09;20.20;99.90
22813;DHT22;11573;51.334;3.244;2023-10-08T16:12:36;20.20;99.90
22813;DHT22;11573;51.334;3.244;2023-10-08T16:15:04;20.10;99.90
22813;DHT22;11573;51.334;3.244;2023-10-08T16:17:32;20.10;99.90
22813;DHT22;11573;51.334;3.244;2023-10-08T16:19:59;20.10;99.90